Ellerslie, MD (21529)

9:50 AM EDT on September 30, 2016 (GMT -0400)
Wellersburg | | Change Station

Elev 1650 ft 39.75 °N, 78.85 °W | Updated 15 seconds ago

Overcast
Overcast
55.0 °F
Feels Like 55.0 °F
N
0.0
Wind Variable Wind from SW
Gusts 0.0 mph

Today
High -- | Low -- °F
--% Chance of Precip.
Yesterday
High -- | Low -- °F
Precip. -- in
Pressure 30.25 in
Visibility 4.0 miles
Clouds Overcast 1400 ft
Dew Point 52 °F
Humidity 90%
Rainfall 0.00 in
Snow Depth Not available.
7:10 AM 6:58 PM
Waning Crescent, 0% visible
METAR KCBE 301346Z AUTO 00000KT 4SM OVC014 15/13 A3025 RMK AO1
Pressure 30.25 in
Visibility 4.0 miles
Clouds Overcast 1400 ft
Dew Point 52 °F
Humidity 90%
Rainfall 0.00 in
Snow Depth Not available.
7:10 AM 6:58 PM
Waning Crescent, 0% visible
METAR KCBE 301346Z AUTO 00000KT 4SM OVC014 15/13 A3025 RMK AO1

10-Day Weather Forecast

Almanac

Astronomy

Sep. 30, 2016 Rise Set
Actual Time
Civil Twilight
Nautical Twilight
Astronomical Twilight
Moon
Length of Visible Light
Length of Day
Tomorrow will be .
, % of the Moon is Illuminated

Today's Extremes

State Highs State Lows

Community

WunderPhotos

Upload Photos

1,942,711 photos uploaded!

WunderBlog® & News

Nearby

Air Quality

  Air Quality AQ Index Pollutant
Not available.

Snow Depth

Station Depth Elevation

Earthquake Activity

City Distance Mag. Time & Date
Minimum magnitude displayed is 2.5.

Coastal Water Temperatures

Place Temperature

Stations

Nearby Weather Stations

Station Location Temp. Windchill Dew Point Humidity Wind Precip. Elev Updated Type
                   

Watches & Warnings

There are currently no watches in effect.